sensor_id;sensor_type;location;lat;lon;timestamp;P1;durP1;ratioP1;P2;durP2;ratioP2
12654;SDS011;6392;44.644;11.448;2022-10-16T00:01:06;31.63;;;20.30;;
12654;SDS011;6392;44.644;11.448;2022-10-16T00:03:34;33.80;;;19.97;;
12654;SDS011;6392;44.644;11.448;2022-10-16T00:06:01;35.63;;;20.27;;
12654;SDS011;6392;44.644;11.448;2022-10-16T00:08:29;36.13;;;20.00;;
12654;SDS011;6392;44.644;11.448;2022-10-16T00:11:00;33.27;;;20.00;;
12654;SDS011;6392;44.644;11.448;2022-10-16T00:13:30;33.57;;;19.97;;
12654;SDS011;6392;44.644;11.448;2022-10-16T00:15:58;30.60;;;19.00;;
12654;SDS011;6392;44.644;11.448;2022-10-16T00:18:26;32.73;;;19.10;;
12654;SDS011;6392;44.644;11.448;2022-10-16T00:20:53;31.67;;;19.17;;
12654;SDS011;6392;44.644;11.448;2022-10-16T00:23:21;34.37;;;19.33;;
12654;SDS011;6392;44.644;11.448;2022-10-16T00:25:54;37.73;;;19.80;;
12654;SDS011;6392;44.644;11.448;2022-10-16T00:28:22;31.07;;;19.33;;
12654;SDS011;6392;44.644;11.448;2022-10-16T00:30:50;34.47;;;20.50;;
12654;SDS011;6392;44.644;11.448;2022-10-16T00:33:18;35.60;;;19.70;;
12654;SDS011;6392;44.644;11.448;2022-10-16T00:35:45;33.77;;;19.87;;
12654;SDS011;6392;44.644;11.448;2022-10-16T00:38:12;35.23;;;20.13;;
12654;SDS011;6392;44.644;11.448;2022-10-16T00:40:40;34.17;;;19.63;;
12654;SDS011;6392;44.644;11.448;2022-10-16T00:43:11;33.97;;;19.83;;
12654;SDS011;6392;44.644;11.448;2022-10-16T00:45:40;35.30;;;20.20;;
12654;SDS011;6392;44.644;11.448;2022-10-16T00:48:10;34.87;;;20.57;;
12654;SDS011;6392;44.644;11.448;2022-10-16T00:50:39;35.13;;;20.27;;
12654;SDS011;6392;44.644;11.448;2022-10-16T00:53:08;30.47;;;18.73;;
12654;SDS011;6392;44.644;11.448;2022-10-16T00:55:37;32.10;;;19.67;;
12654;SDS011;6392;44.644;11.448;2022-10-16T00:58:04;30.83;;;18.57;;
12654;SDS011;6392;44.644;11.448;2022-10-16T01:00:32;34.70;;;19.93;;
12654;SDS011;6392;44.644;11.448;2022-10-16T01:02:59;38.47;;;19.97;;
12654;SDS011;6392;44.644;11.448;2022-10-16T01:05:30;34.30;;;21.07;;
12654;SDS011;6392;44.644;11.448;2022-10-16T01:08:08;31.93;;;19.50;;
12654;SDS011;6392;44.644;11.448;2022-10-16T01:10:43;33.53;;;20.20;;
12654;SDS011;6392;44.644;11.448;2022-10-16T01:13:21;39.40;;;20.40;;
12654;SDS011;6392;44.644;11.448;2022-10-16T01:15:52;36.57;;;18.90;;
12654;SDS011;6392;44.644;11.448;2022-10-16T01:18:23;32.53;;;20.07;;
12654;SDS011;6392;44.644;11.448;2022-10-16T01:20:59;31.80;;;19.47;;
12654;SDS011;6392;44.644;11.448;2022-10-16T01:23:34;33.27;;;20.20;;
12654;SDS011;6392;44.644;11.448;2022-10-16T01:26:14;31.17;;;18.07;;
12654;SDS011;6392;44.644;11.448;2022-10-16T01:28:59;32.50;;;20.23;;
12654;SDS011;6392;44.644;11.448;2022-10-16T01:31:34;29.53;;;18.80;;
12654;SDS011;6392;44.644;11.448;2022-10-16T01:34:05;36.50;;;20.67;;
12654;SDS011;6392;44.644;11.448;2022-10-16T01:36:37;31.47;;;18.97;;
12654;SDS011;6392;44.644;11.448;2022-10-16T01:39:08;34.47;;;19.77;;
12654;SDS011;6392;44.644;11.448;2022-10-16T01:41:38;36.37;;;20.60;;
12654;SDS011;6392;44.644;11.448;2022-10-16T01:44:09;36.10;;;20.80;;
12654;SDS011;6392;44.644;11.448;2022-10-16T01:46:41;32.93;;;19.43;;
12654;SDS011;6392;44.644;11.448;2022-10-16T01:49:09;34.03;;;19.43;;
12654;SDS011;6392;44.644;11.448;2022-10-16T01:51:38;36.20;;;20.10;;
12654;SDS011;6392;44.644;11.448;2022-10-16T01:54:06;34.03;;;20.70;;
12654;SDS011;6392;44.644;11.448;2022-10-16T01:56:35;34.87;;;19.67;;
12654;SDS011;6392;44.644;11.448;2022-10-16T01:59:05;33.17;;;20.13;;
12654;SDS011;6392;44.644;11.448;2022-10-16T02:01:38;37.30;;;20.90;;
12654;SDS011;6392;44.644;11.448;2022-10-16T02:04:08;38.23;;;21.07;;
12654;SDS011;6392;44.644;11.448;2022-10-16T02:06:39;37.27;;;20.67;;
12654;SDS011;6392;44.644;11.448;2022-10-16T02:09:06;34.30;;;20.20;;
12654;SDS011;6392;44.644;11.448;2022-10-16T02:11:33;37.77;;;20.53;;
12654;SDS011;6392;44.644;11.448;2022-10-16T02:14:01;32.13;;;19.43;;
12654;SDS011;6392;44.644;11.448;2022-10-16T02:16:34;31.87;;;19.40;;
12654;SDS011;6392;44.644;11.448;2022-10-16T02:19:04;29.70;;;18.83;;
12654;SDS011;6392;44.644;11.448;2022-10-16T02:21:33;29.87;;;18.47;;
12654;SDS011;6392;44.644;11.448;2022-10-16T02:24:07;33.67;;;20.23;;
12654;SDS011;6392;44.644;11.448;2022-10-16T02:26:40;30.80;;;18.10;;
12654;SDS011;6392;44.644;11.448;2022-10-16T02:29:12;29.23;;;18.20;;
12654;SDS011;6392;44.644;11.448;2022-10-16T02:31:45;37.80;;;20.27;;
12654;SDS011;6392;44.644;11.448;2022-10-16T02:34:16;33.33;;;19.87;;
12654;SDS011;6392;44.644;11.448;2022-10-16T02:36:44;32.47;;;18.77;;
12654;SDS011;6392;44.644;11.448;2022-10-16T02:39:13;31.50;;;17.97;;
12654;SDS011;6392;44.644;11.448;2022-10-16T02:41:41;27.90;;;16.30;;
12654;SDS011;6392;44.644;11.448;2022-10-16T02:44:09;32.90;;;16.77;;
12654;SDS011;6392;44.644;11.448;2022-10-16T02:46:36;27.00;;;16.77;;
12654;SDS011;6392;44.644;11.448;2022-10-16T02:49:05;30.67;;;17.77;;
12654;SDS011;6392;44.644;11.448;2022-10-16T02:51:32;27.87;;;16.57;;
12654;SDS011;6392;44.644;11.448;2022-10-16T02:53:59;28.87;;;17.37;;
12654;SDS011;6392;44.644;11.448;2022-10-16T02:56:26;30.47;;;17.50;;
12654;SDS011;6392;44.644;11.448;2022-10-16T02:58:54;28.23;;;16.77;;
12654;SDS011;6392;44.644;11.448;2022-10-16T03:01:22;28.77;;;17.87;;
12654;SDS011;6392;44.644;11.448;2022-10-16T03:03:49;23.27;;;15.87;;
12654;SDS011;6392;44.644;11.448;2022-10-16T03:06:17;29.20;;;16.33;;
12654;SDS011;6392;44.644;11.448;2022-10-16T03:08:44;26.03;;;15.73;;
12654;SDS011;6392;44.644;11.448;2022-10-16T03:11:11;25.10;;;16.13;;
12654;SDS011;6392;44.644;11.448;2022-10-16T03:13:38;25.40;;;15.47;;
12654;SDS011;6392;44.644;11.448;2022-10-16T03:16:05;27.00;;;15.00;;
12654;SDS011;6392;44.644;11.448;2022-10-16T03:18:33;27.20;;;15.33;;
12654;SDS011;6392;44.644;11.448;2022-10-16T03:21:00;28.50;;;15.20;;
12654;SDS011;6392;44.644;11.448;2022-10-16T03:23:28;30.33;;;16.00;;
12654;SDS011;6392;44.644;11.448;2022-10-16T03:25:55;26.80;;;14.67;;
12654;SDS011;6392;44.644;11.448;2022-10-16T03:28:22;22.83;;;14.47;;
12654;SDS011;6392;44.644;11.448;2022-10-16T03:30:49;24.03;;;15.17;;
12654;SDS011;6392;44.644;11.448;2022-10-16T03:33:16;25.07;;;15.43;;
12654;SDS011;6392;44.644;11.448;2022-10-16T03:35:50;25.17;;;16.40;;
12654;SDS011;6392;44.644;11.448;2022-10-16T03:38:18;28.50;;;16.47;;
12654;SDS011;6392;44.644;11.448;2022-10-16T03:40:47;26.87;;;15.43;;
12654;SDS011;6392;44.644;11.448;2022-10-16T03:43:14;26.70;;;14.90;;
12654;SDS011;6392;44.644;11.448;2022-10-16T03:45:41;28.17;;;15.43;;
12654;SDS011;6392;44.644;11.448;2022-10-16T03:48:08;23.50;;;14.63;;
12654;SDS011;6392;44.644;11.448;2022-10-16T03:50:35;24.43;;;14.17;;
12654;SDS011;6392;44.644;11.448;2022-10-16T03:53:02;18.70;;;12.53;;
12654;SDS011;6392;44.644;11.448;2022-10-16T03:55:30;20.53;;;13.10;;
12654;SDS011;6392;44.644;11.448;2022-10-16T03:57:58;19.27;;;11.20;;
12654;SDS011;6392;44.644;11.448;2022-10-16T04:00:25;21.77;;;12.53;;
12654;SDS011;6392;44.644;11.448;2022-10-16T04:02:52;14.90;;;10.47;;
12654;SDS011;6392;44.644;11.448;2022-10-16T04:05:20;18.70;;;11.57;;
12654;SDS011;6392;44.644;11.448;2022-10-16T04:07:47;15.87;;;11.13;;
12654;SDS011;6392;44.644;11.448;2022-10-16T04:10:14;17.87;;;11.27;;
12654;SDS011;6392;44.644;11.448;2022-10-16T04:12:41;17.77;;;10.07;;
12654;SDS011;6392;44.644;11.448;2022-10-16T04:15:09;16.70;;;11.00;;
12654;SDS011;6392;44.644;11.448;2022-10-16T04:17:37;16.80;;;11.30;;
12654;SDS011;6392;44.644;11.448;2022-10-16T04:20:04;18.07;;;10.37;;
12654;SDS011;6392;44.644;11.448;2022-10-16T04:22:32;18.43;;;10.47;;
12654;SDS011;6392;44.644;11.448;2022-10-16T04:24:59;17.77;;;10.37;;
12654;SDS011;6392;44.644;11.448;2022-10-16T04:27:26;16.07;;;9.90;;
12654;SDS011;6392;44.644;11.448;2022-10-16T04:29:53;16.20;;;10.87;;
12654;SDS011;6392;44.644;11.448;2022-10-16T04:32:21;19.70;;;11.67;;
12654;SDS011;6392;44.644;11.448;2022-10-16T04:34:49;15.93;;;10.90;;
12654;SDS011;6392;44.644;11.448;2022-10-16T04:37:16;19.03;;;12.50;;
12654;SDS011;6392;44.644;11.448;2022-10-16T04:39:43;16.77;;;11.20;;
12654;SDS011;6392;44.644;11.448;2022-10-16T04:42:10;16.63;;;11.23;;
12654;SDS011;6392;44.644;11.448;2022-10-16T04:44:37;20.77;;;12.33;;
12654;SDS011;6392;44.644;11.448;2022-10-16T04:47:04;19.67;;;11.97;;
12654;SDS011;6392;44.644;11.448;2022-10-16T04:49:33;21.67;;;12.53;;
12654;SDS011;6392;44.644;11.448;2022-10-16T04:52:00;17.83;;;11.77;;
12654;SDS011;6392;44.644;11.448;2022-10-16T04:54:27;18.07;;;11.57;;
12654;SDS011;6392;44.644;11.448;2022-10-16T04:56:54;19.83;;;11.30;;
12654;SDS011;6392;44.644;11.448;2022-10-16T04:59:21;17.73;;;10.93;;
12654;SDS011;6392;44.644;11.448;2022-10-16T05:01:49;17.17;;;11.50;;
12654;SDS011;6392;44.644;11.448;2022-10-16T05:04:16;16.07;;;10.67;;
12654;SDS011;6392;44.644;11.448;2022-10-16T05:06:44;21.53;;;11.33;;
12654;SDS011;6392;44.644;11.448;2022-10-16T05:09:11;19.33;;;11.43;;
12654;SDS011;6392;44.644;11.448;2022-10-16T05:11:38;20.53;;;11.00;;
12654;SDS011;6392;44.644;11.448;2022-10-16T05:14:05;18.43;;;11.17;;
12654;SDS011;6392;44.644;11.448;2022-10-16T05:16:32;18.97;;;12.60;;
12654;SDS011;6392;44.644;11.448;2022-10-16T05:18:59;19.40;;;13.00;;
12654;SDS011;6392;44.644;11.448;2022-10-16T05:21:26;16.17;;;10.90;;
12654;SDS011;6392;44.644;11.448;2022-10-16T05:23:55;16.10;;;10.40;;
12654;SDS011;6392;44.644;11.448;2022-10-16T05:26:22;16.57;;;11.07;;
12654;SDS011;6392;44.644;11.448;2022-10-16T05:28:49;17.53;;;11.00;;
12654;SDS011;6392;44.644;11.448;2022-10-16T05:31:16;17.70;;;11.33;;
12654;SDS011;6392;44.644;11.448;2022-10-16T05:33:43;20.10;;;10.70;;
12654;SDS011;6392;44.644;11.448;2022-10-16T05:36:10;19.97;;;11.60;;
12654;SDS011;6392;44.644;11.448;2022-10-16T05:38:39;18.43;;;11.80;;
12654;SDS011;6392;44.644;11.448;2022-10-16T05:41:07;19.63;;;12.03;;
12654;SDS011;6392;44.644;11.448;2022-10-16T05:43:34;15.57;;;10.77;;
12654;SDS011;6392;44.644;11.448;2022-10-16T05:46:03;18.37;;;12.30;;
12654;SDS011;6392;44.644;11.448;2022-10-16T05:48:31;16.83;;;11.17;;
12654;SDS011;6392;44.644;11.448;2022-10-16T05:50:59;15.20;;;11.47;;
12654;SDS011;6392;44.644;11.448;2022-10-16T05:53:28;18.23;;;11.10;;
12654;SDS011;6392;44.644;11.448;2022-10-16T05:55:56;18.47;;;12.17;;
12654;SDS011;6392;44.644;11.448;2022-10-16T05:58:25;17.40;;;11.10;;
12654;SDS011;6392;44.644;11.448;2022-10-16T06:00:55;20.40;;;10.87;;
12654;SDS011;6392;44.644;11.448;2022-10-16T06:03:23;19.73;;;10.53;;
12654;SDS011;6392;44.644;11.448;2022-10-16T06:05:51;21.30;;;13.00;;
12654;SDS011;6392;44.644;11.448;2022-10-16T06:08:19;16.43;;;11.20;;
12654;SDS011;6392;44.644;11.448;2022-10-16T06:10:47;19.87;;;11.73;;
12654;SDS011;6392;44.644;11.448;2022-10-16T06:13:14;23.37;;;12.67;;
12654;SDS011;6392;44.644;11.448;2022-10-16T06:15:43;22.07;;;12.57;;
12654;SDS011;6392;44.644;11.448;2022-10-16T06:18:10;19.17;;;12.27;;
12654;SDS011;6392;44.644;11.448;2022-10-16T06:20:37;20.53;;;12.97;;
12654;SDS011;6392;44.644;11.448;2022-10-16T06:23:04;18.17;;;12.13;;
12654;SDS011;6392;44.644;11.448;2022-10-16T06:25:31;19.27;;;12.53;;
12654;SDS011;6392;44.644;11.448;2022-10-16T06:27:58;20.17;;;12.47;;
12654;SDS011;6392;44.644;11.448;2022-10-16T06:30:25;21.40;;;12.73;;
12654;SDS011;6392;44.644;11.448;2022-10-16T06:32:53;21.53;;;14.13;;
12654;SDS011;6392;44.644;11.448;2022-10-16T06:35:20;23.87;;;14.77;;
12654;SDS011;6392;44.644;11.448;2022-10-16T06:37:48;22.20;;;14.53;;
12654;SDS011;6392;44.644;11.448;2022-10-16T06:40:15;25.03;;;13.33;;
12654;SDS011;6392;44.644;11.448;2022-10-16T06:42:42;24.13;;;14.50;;
12654;SDS011;6392;44.644;11.448;2022-10-16T06:45:10;19.53;;;13.03;;
12654;SDS011;6392;44.644;11.448;2022-10-16T06:47:37;21.83;;;14.03;;
12654;SDS011;6392;44.644;11.448;2022-10-16T06:50:06;23.30;;;12.93;;
12654;SDS011;6392;44.644;11.448;2022-10-16T06:52:34;24.60;;;13.40;;
12654;SDS011;6392;44.644;11.448;2022-10-16T06:55:01;20.00;;;11.77;;
12654;SDS011;6392;44.644;11.448;2022-10-16T06:57:29;19.30;;;11.40;;
12654;SDS011;6392;44.644;11.448;2022-10-16T06:59:56;16.47;;;10.67;;
12654;SDS011;6392;44.644;11.448;2022-10-16T07:02:23;15.60;;;9.67;;
12654;SDS011;6392;44.644;11.448;2022-10-16T07:04:50;16.10;;;10.67;;
12654;SDS011;6392;44.644;11.448;2022-10-16T07:07:18;14.53;;;9.00;;
12654;SDS011;6392;44.644;11.448;2022-10-16T07:09:45;10.37;;;7.50;;
12654;SDS011;6392;44.644;11.448;2022-10-16T07:12:12;15.10;;;7.60;;
12654;SDS011;6392;44.644;11.448;2022-10-16T07:14:39;11.50;;;8.10;;
12654;SDS011;6392;44.644;11.448;2022-10-16T07:17:06;11.43;;;6.77;;
12654;SDS011;6392;44.644;11.448;2022-10-16T07:19:33;11.47;;;7.07;;
12654;SDS011;6392;44.644;11.448;2022-10-16T07:22:00;10.30;;;7.07;;
12654;SDS011;6392;44.644;11.448;2022-10-16T07:24:29;11.00;;;6.63;;
12654;SDS011;6392;44.644;11.448;2022-10-16T07:26:56;7.63;;;6.30;;
12654;SDS011;6392;44.644;11.448;2022-10-16T07:29:23;8.50;;;5.93;;
12654;SDS011;6392;44.644;11.448;2022-10-16T07:31:50;10.13;;;6.60;;
12654;SDS011;6392;44.644;11.448;2022-10-16T07:34:18;8.23;;;6.20;;
12654;SDS011;6392;44.644;11.448;2022-10-16T07:36:47;10.87;;;7.27;;
12654;SDS011;6392;44.644;11.448;2022-10-16T07:39:15;9.27;;;6.57;;
12654;SDS011;6392;44.644;11.448;2022-10-16T07:41:44;11.03;;;7.20;;
12654;SDS011;6392;44.644;11.448;2022-10-16T07:44:11;10.27;;;7.67;;
12654;SDS011;6392;44.644;11.448;2022-10-16T07:46:38;9.30;;;6.03;;
12654;SDS011;6392;44.644;11.448;2022-10-16T07:49:05;11.17;;;7.10;;
12654;SDS011;6392;44.644;11.448;2022-10-16T07:51:32;9.50;;;6.53;;
12654;SDS011;6392;44.644;11.448;2022-10-16T07:53:59;13.80;;;8.50;;
12654;SDS011;6392;44.644;11.448;2022-10-16T07:56:26;12.20;;;8.83;;
12654;SDS011;6392;44.644;11.448;2022-10-16T07:58:55;10.07;;;7.40;;
12654;SDS011;6392;44.644;11.448;2022-10-16T08:01:22;10.20;;;7.00;;
12654;SDS011;6392;44.644;11.448;2022-10-16T08:03:50;11.37;;;8.00;;
12654;SDS011;6392;44.644;11.448;2022-10-16T08:06:18;15.03;;;9.97;;
12654;SDS011;6392;44.644;11.448;2022-10-16T08:08:46;15.90;;;8.73;;
12654;SDS011;6392;44.644;11.448;2022-10-16T08:11:13;12.83;;;7.63;;
12654;SDS011;6392;44.644;11.448;2022-10-16T08:13:40;14.13;;;9.13;;
12654;SDS011;6392;44.644;11.448;2022-10-16T08:16:09;14.40;;;8.90;;
12654;SDS011;6392;44.644;11.448;2022-10-16T08:18:37;12.60;;;9.13;;
12654;SDS011;6392;44.644;11.448;2022-10-16T08:21:07;13.83;;;8.67;;
12654;SDS011;6392;44.644;11.448;2022-10-16T08:23:39;15.00;;;9.57;;
12654;SDS011;6392;44.644;11.448;2022-10-16T08:26:06;13.77;;;8.33;;
12654;SDS011;6392;44.644;11.448;2022-10-16T08:28:34;18.90;;;9.87;;
12654;SDS011;6392;44.644;11.448;2022-10-16T08:31:05;13.90;;;9.43;;
12654;SDS011;6392;44.644;11.448;2022-10-16T08:33:43;26.50;;;15.57;;
12654;SDS011;6392;44.644;11.448;2022-10-16T08:36:12;22.17;;;14.17;;
12654;SDS011;6392;44.644;11.448;2022-10-16T08:38:40;23.30;;;14.90;;
12654;SDS011;6392;44.644;11.448;2022-10-16T08:41:29;22.60;;;15.63;;
12654;SDS011;6392;44.644;11.448;2022-10-16T08:44:25;32.57;;;18.10;;
12654;SDS011;6392;44.644;11.448;2022-10-16T08:47:05;29.13;;;17.73;;
12654;SDS011;6392;44.644;11.448;2022-10-16T08:49:38;31.57;;;18.87;;
12654;SDS011;6392;44.644;11.448;2022-10-16T08:52:10;31.53;;;17.77;;
12654;SDS011;6392;44.644;11.448;2022-10-16T08:54:41;31.20;;;18.37;;
12654;SDS011;6392;44.644;11.448;2022-10-16T08:57:11;41.17;;;23.27;;
12654;SDS011;6392;44.644;11.448;2022-10-16T08:59:40;35.73;;;19.90;;
12654;SDS011;6392;44.644;11.448;2022-10-16T09:02:18;33.00;;;20.17;;
12654;SDS011;6392;44.644;11.448;2022-10-16T09:04:57;34.40;;;20.70;;
12654;SDS011;6392;44.644;11.448;2022-10-16T09:07:43;34.43;;;19.97;;
12654;SDS011;6392;44.644;11.448;2022-10-16T09:10:19;31.03;;;19.47;;
12654;SDS011;6392;44.644;11.448;2022-10-16T09:12:58;32.47;;;18.57;;
12654;SDS011;6392;44.644;11.448;2022-10-16T09:15:34;37.70;;;20.83;;
12654;SDS011;6392;44.644;11.448;2022-10-16T09:18:10;31.03;;;19.43;;
12654;SDS011;6392;44.644;11.448;2022-10-16T09:20:44;33.67;;;19.77;;
12654;SDS011;6392;44.644;11.448;2022-10-16T09:23:17;30.77;;;18.33;;
12654;SDS011;6392;44.644;11.448;2022-10-16T09:25:48;32.50;;;19.30;;
12654;SDS011;6392;44.644;11.448;2022-10-16T09:28:16;31.93;;;20.20;;
12654;SDS011;6392;44.644;11.448;2022-10-16T09:30:44;36.70;;;21.23;;
12654;SDS011;6392;44.644;11.448;2022-10-16T09:33:14;32.90;;;19.87;;
12654;SDS011;6392;44.644;11.448;2022-10-16T09:35:44;34.23;;;18.73;;
12654;SDS011;6392;44.644;11.448;2022-10-16T09:38:22;25.10;;;15.97;;
12654;SDS011;6392;44.644;11.448;2022-10-16T09:40:51;35.17;;;20.07;;
12654;SDS011;6392;44.644;11.448;2022-10-16T09:43:20;34.30;;;19.93;;
12654;SDS011;6392;44.644;11.448;2022-10-16T09:45:54;34.37;;;20.97;;
12654;SDS011;6392;44.644;11.448;2022-10-16T09:48:23;33.90;;;20.50;;
12654;SDS011;6392;44.644;11.448;2022-10-16T09:50:56;33.57;;;20.40;;
12654;SDS011;6392;44.644;11.448;2022-10-16T09:53:25;35.47;;;20.80;;
12654;SDS011;6392;44.644;11.448;2022-10-16T09:56:04;32.77;;;20.13;;
12654;SDS011;6392;44.644;11.448;2022-10-16T09:58:32;33.60;;;19.43;;
12654;SDS011;6392;44.644;11.448;2022-10-16T10:00:59;35.47;;;18.63;;
12654;SDS011;6392;44.644;11.448;2022-10-16T10:03:38;30.83;;;19.30;;
12654;SDS011;6392;44.644;11.448;2022-10-16T10:06:14;29.53;;;15.40;;
12654;SDS011;6392;44.644;11.448;2022-10-16T10:08:55;12.87;;;7.97;;
12654;SDS011;6392;44.644;11.448;2022-10-16T10:11:39;11.47;;;7.57;;
12654;SDS011;6392;44.644;11.448;2022-10-16T10:14:15;28.57;;;17.13;;
12654;SDS011;6392;44.644;11.448;2022-10-16T10:16:44;32.77;;;18.80;;
12654;SDS011;6392;44.644;11.448;2022-10-16T10:19:17;30.87;;;17.63;;
12654;SDS011;6392;44.644;11.448;2022-10-16T10:21:45;28.53;;;17.93;;
12654;SDS011;6392;44.644;11.448;2022-10-16T10:24:13;35.83;;;19.37;;
12654;SDS011;6392;44.644;11.448;2022-10-16T10:26:43;23.53;;;15.43;;
12654;SDS011;6392;44.644;11.448;2022-10-16T10:29:19;27.77;;;17.27;;
12654;SDS011;6392;44.644;11.448;2022-10-16T10:32:05;26.80;;;16.37;;
12654;SDS011;6392;44.644;11.448;2022-10-16T10:34:46;26.10;;;16.50;;
12654;SDS011;6392;44.644;11.448;2022-10-16T10:37:32;24.80;;;15.60;;
12654;SDS011;6392;44.644;11.448;2022-10-16T10:40:11;25.20;;;16.40;;
12654;SDS011;6392;44.644;11.448;2022-10-16T10:42:49;26.30;;;16.27;;
12654;SDS011;6392;44.644;11.448;2022-10-16T10:45:25;13.27;;;9.03;;
12654;SDS011;6392;44.644;11.448;2022-10-16T10:48:03;11.50;;;8.67;;
12654;SDS011;6392;44.644;11.448;2022-10-16T10:50:44;25.07;;;16.73;;
12654;SDS011;6392;44.644;11.448;2022-10-16T10:53:21;9.80;;;6.17;;
12654;SDS011;6392;44.644;11.448;2022-10-16T10:55:59;23.20;;;12.70;;
12654;SDS011;6392;44.644;11.448;2022-10-16T11:01:41;9.23;;;6.50;;
12654;SDS011;6392;44.644;11.448;2022-10-16T11:04:27;8.10;;;5.30;;
12654;SDS011;6392;44.644;11.448;2022-10-16T11:07:05;8.80;;;5.83;;
12654;SDS011;6392;44.644;11.448;2022-10-16T11:09:37;7.57;;;6.07;;
12654;SDS011;6392;44.644;11.448;2022-10-16T11:12:09;8.87;;;6.97;;
12654;SDS011;6392;44.644;11.448;2022-10-16T11:14:44;8.60;;;6.20;;
12654;SDS011;6392;44.644;11.448;2022-10-16T11:17:18;11.57;;;8.23;;
12654;SDS011;6392;44.644;11.448;2022-10-16T11:19:52;7.27;;;6.33;;
12654;SDS011;6392;44.644;11.448;2022-10-16T11:22:25;17.27;;;10.80;;
12654;SDS011;6392;44.644;11.448;2022-10-16T11:24:59;17.47;;;10.83;;
12654;SDS011;6392;44.644;11.448;2022-10-16T11:27:34;24.00;;;14.80;;
12654;SDS011;6392;44.644;11.448;2022-10-16T11:30:05;19.57;;;12.60;;
12654;SDS011;6392;44.644;11.448;2022-10-16T11:32:42;6.77;;;5.13;;
12654;SDS011;6392;44.644;11.448;2022-10-16T11:35:19;16.77;;;11.40;;
12654;SDS011;6392;44.644;11.448;2022-10-16T11:37:50;13.90;;;9.30;;
12654;SDS011;6392;44.644;11.448;2022-10-16T11:40:24;9.40;;;6.20;;
12654;SDS011;6392;44.644;11.448;2022-10-16T11:42:57;10.27;;;6.60;;
12654;SDS011;6392;44.644;11.448;2022-10-16T11:45:30;6.50;;;5.00;;
12654;SDS011;6392;44.644;11.448;2022-10-16T11:48:04;9.07;;;5.93;;
12654;SDS011;6392;44.644;11.448;2022-10-16T11:50:39;8.97;;;5.20;;
12654;SDS011;6392;44.644;11.448;2022-10-16T11:53:16;9.13;;;6.23;;
12654;SDS011;6392;44.644;11.448;2022-10-16T11:55:49;9.27;;;6.17;;
12654;SDS011;6392;44.644;11.448;2022-10-16T11:58:20;10.43;;;6.17;;
12654;SDS011;6392;44.644;11.448;2022-10-16T12:00:53;20.43;;;12.03;;
12654;SDS011;6392;44.644;11.448;2022-10-16T12:03:28;9.57;;;6.70;;
12654;SDS011;6392;44.644;11.448;2022-10-16T12:06:06;7.80;;;5.13;;
12654;SDS011;6392;44.644;11.448;2022-10-16T12:08:44;6.40;;;5.13;;
12654;SDS011;6392;44.644;11.448;2022-10-16T12:11:32;8.07;;;5.27;;
12654;SDS011;6392;44.644;11.448;2022-10-16T12:14:04;9.40;;;5.70;;
12654;SDS011;6392;44.644;11.448;2022-10-16T12:16:53;7.20;;;5.63;;
12654;SDS011;6392;44.644;11.448;2022-10-16T12:19:21;14.73;;;9.17;;
12654;SDS011;6392;44.644;11.448;2022-10-16T12:21:50;18.83;;;12.33;;
12654;SDS011;6392;44.644;11.448;2022-10-16T12:24:26;20.60;;;12.00;;
12654;SDS011;6392;44.644;11.448;2022-10-16T12:26:58;11.47;;;6.33;;
12654;SDS011;6392;44.644;11.448;2022-10-16T12:29:28;8.37;;;5.40;;
12654;SDS011;6392;44.644;11.448;2022-10-16T12:32:02;6.80;;;5.00;;
12654;SDS011;6392;44.644;11.448;2022-10-16T12:34:34;5.40;;;4.57;;
12654;SDS011;6392;44.644;11.448;2022-10-16T12:37:09;5.07;;;4.10;;
12654;SDS011;6392;44.644;11.448;2022-10-16T12:39:40;6.53;;;4.90;;
12654;SDS011;6392;44.644;11.448;2022-10-16T12:42:19;5.43;;;4.23;;
12654;SDS011;6392;44.644;11.448;2022-10-16T12:44:49;6.83;;;4.63;;
12654;SDS011;6392;44.644;11.448;2022-10-16T12:47:21;6.53;;;4.67;;
12654;SDS011;6392;44.644;11.448;2022-10-16T12:49:50;6.57;;;4.97;;
12654;SDS011;6392;44.644;11.448;2022-10-16T12:52:25;8.37;;;5.77;;
12654;SDS011;6392;44.644;11.448;2022-10-16T12:54:57;6.13;;;4.93;;
12654;SDS011;6392;44.644;11.448;2022-10-16T12:57:34;11.53;;;7.70;;
12654;SDS011;6392;44.644;11.448;2022-10-16T13:00:13;6.67;;;4.60;;
12654;SDS011;6392;44.644;11.448;2022-10-16T13:02:54;7.73;;;5.37;;
12654;SDS011;6392;44.644;11.448;2022-10-16T13:05:42;7.73;;;5.00;;
12654;SDS011;6392;44.644;11.448;2022-10-16T13:08:27;7.47;;;4.70;;
12654;SDS011;6392;44.644;11.448;2022-10-16T13:11:11;8.20;;;5.23;;
12654;SDS011;6392;44.644;11.448;2022-10-16T13:13:50;7.20;;;5.30;;
12654;SDS011;6392;44.644;11.448;2022-10-16T13:16:30;10.03;;;6.50;;
12654;SDS011;6392;44.644;11.448;2022-10-16T13:19:10;5.50;;;4.20;;
12654;SDS011;6392;44.644;11.448;2022-10-16T13:21:46;6.40;;;5.13;;
12654;SDS011;6392;44.644;11.448;2022-10-16T13:24:20;5.73;;;5.13;;
12654;SDS011;6392;44.644;11.448;2022-10-16T13:27:05;6.17;;;4.80;;
12654;SDS011;6392;44.644;11.448;2022-10-16T13:29:39;9.93;;;5.20;;
12654;SDS011;6392;44.644;11.448;2022-10-16T13:32:07;6.50;;;5.37;;
12654;SDS011;6392;44.644;11.448;2022-10-16T13:34:43;7.57;;;4.93;;
12654;SDS011;6392;44.644;11.448;2022-10-16T13:37:16;5.43;;;4.43;;
12654;SDS011;6392;44.644;11.448;2022-10-16T13:39:45;7.67;;;5.30;;
12654;SDS011;6392;44.644;11.448;2022-10-16T13:42:14;6.10;;;4.50;;
12654;SDS011;6392;44.644;11.448;2022-10-16T13:44:48;7.63;;;4.77;;
12654;SDS011;6392;44.644;11.448;2022-10-16T13:47:18;6.90;;;5.00;;
12654;SDS011;6392;44.644;11.448;2022-10-16T13:49:46;5.37;;;4.50;;
12654;SDS011;6392;44.644;11.448;2022-10-16T13:52:24;10.80;;;7.80;;
12654;SDS011;6392;44.644;11.448;2022-10-16T13:54:51;6.00;;;4.77;;
12654;SDS011;6392;44.644;11.448;2022-10-16T13:57:21;5.53;;;4.30;;
12654;SDS011;6392;44.644;11.448;2022-10-16T13:59:49;5.13;;;4.37;;
12654;SDS011;6392;44.644;11.448;2022-10-16T14:02:19;7.53;;;5.10;;
12654;SDS011;6392;44.644;11.448;2022-10-16T14:04:50;6.63;;;5.20;;
12654;SDS011;6392;44.644;11.448;2022-10-16T14:07:19;6.37;;;4.40;;
12654;SDS011;6392;44.644;11.448;2022-10-16T14:09:51;5.83;;;4.90;;
12654;SDS011;6392;44.644;11.448;2022-10-16T14:12:20;6.37;;;4.30;;
12654;SDS011;6392;44.644;11.448;2022-10-16T14:14:49;6.10;;;4.50;;
12654;SDS011;6392;44.644;11.448;2022-10-16T14:17:19;6.07;;;4.63;;
12654;SDS011;6392;44.644;11.448;2022-10-16T14:19:49;5.67;;;4.67;;
12654;SDS011;6392;44.644;11.448;2022-10-16T14:22:28;5.50;;;4.83;;
12654;SDS011;6392;44.644;11.448;2022-10-16T14:24:58;4.73;;;4.00;;
12654;SDS011;6392;44.644;11.448;2022-10-16T14:27:27;6.47;;;4.73;;
12654;SDS011;6392;44.644;11.448;2022-10-16T14:30:09;5.77;;;4.47;;
12654;SDS011;6392;44.644;11.448;2022-10-16T14:32:40;5.17;;;4.40;;
12654;SDS011;6392;44.644;11.448;2022-10-16T14:35:21;6.63;;;4.50;;
12654;SDS011;6392;44.644;11.448;2022-10-16T14:37:51;6.83;;;5.07;;
12654;SDS011;6392;44.644;11.448;2022-10-16T14:40:19;7.57;;;4.77;;
12654;SDS011;6392;44.644;11.448;2022-10-16T14:42:50;4.97;;;4.23;;
12654;SDS011;6392;44.644;11.448;2022-10-16T14:45:18;6.27;;;4.87;;
12654;SDS011;6392;44.644;11.448;2022-10-16T14:47:48;9.13;;;4.17;;
12654;SDS011;6392;44.644;11.448;2022-10-16T14:50:17;5.90;;;4.90;;
12654;SDS011;6392;44.644;11.448;2022-10-16T14:52:44;4.90;;;4.37;;